Wilmer, TX

4:19 PM CST on February 22, 2017 (GMT -0600)
Lancaster

Weather History for KLNC - November, 2011

Change the Weather History Date:

Wednesday, November 16, 2011

  Actual Average (KRBD) Record (KRBD)
Temperature  
Mean Temperature 58 °F -  
Max Temperature 64 °F 63 °F 84 °F (2016)
Min Temperature 53 °F 46 °F 25 °F (1997)
Degree Days  
Heating Degree Days 6    
Growing Degree Days 8 (Base 50)    
Moisture  
Dew Point 55 °F    
Average Humidity 81    
Maximum Humidity 100    
Minimum Humidity 55    
Precipitation  
Precipitation 0.01 in - - ()
Sea Level Pressure  
Sea Level Pressure 29.89 in    
Wind  
Wind Speed 8 mph (NNW)    
Max Wind Speed 22 mph    
Max Gust Speed 28 mph    
Visibility 9 miles    
Events      
Averages and records for this station are not official NWS values.
T = Trace of Precipitation, MM = Missing Value Source: NWS Daily Summary

Daily Weather History Graph

Daily Weather History Graph

Search for Another Location

Airport or City:

Trip Planner

Search our weather history database for the weather conditions in past years. The results will help you decide how hot, cold, wet, or windy it might be!

Date:

Astronomy

Nov. 16, 2011 Rise Set
Actual Time 6:57 AM CST 5:25 PM CST
Civil Twilight 6:31 AM CST 5:51 PM CST
Nautical Twilight 6:01 AM CST 6:21 PM CST
Astronomical Twilight 5:32 AM CST 6:50 PM CST
Moon 10:37 PM CST (11/16) 11:35 AM CST (11/16)
Length of Visible Light 11h 20m
Length of Day
10h 28m
Waning Gibbous, 70% of the Moon is Illuminated
Nov 16
Waning Gibbous
Nov 18
Last Quarter
Nov 25
New
Dec 2
First Quarter
Dec 10
Full

Hourly Weather History & Observations

Time (CST) Temp. Windchill Dew Point Humidity Pressure Visibility Wind Dir Wind Speed Gust Speed Precip Events Conditions
12:15 AM 64.4 °F - 64.4 °F 100% 29.76 in 3.0 mi Calm Calm - N/A   Mostly Cloudy
12:35 AM 64.4 °F - 64.4 °F 100% 29.76 in 4.0 mi Calm Calm - N/A   Overcast
12:55 AM 64.4 °F - 64.4 °F 100% 29.75 in 4.0 mi WNW 3.5 mph - N/A   Mostly Cloudy
1:15 AM 64.4 °F - 64.4 °F 100% 29.75 in 5.0 mi NW 5.8 mph - N/A   Overcast
1:35 AM 62.6 °F - 60.8 °F 94% 29.75 in 10.0 mi WNW 5.8 mph - N/A   Overcast
1:55 AM 62.6 °F - 59.0 °F 88% 29.74 in 10.0 mi WNW 4.6 mph - 0.01 in   Overcast
2:15 AM 60.8 °F - 57.2 °F 88% 29.75 in 10.0 mi WNW 6.9 mph - N/A   Overcast
2:35 AM 60.8 °F - 57.2 °F 88% 29.75 in 10.0 mi NW 5.8 mph - N/A   Scattered Clouds
2:55 AM 60.8 °F - 55.4 °F 82% 29.75 in 10.0 mi NW 4.6 mph - N/A   Clear
3:15 AM 59.0 °F - 55.4 °F 88% 29.75 in 10.0 mi NW 4.6 mph - N/A   Clear
3:35 AM 59.0 °F - 55.4 °F 88% 29.75 in 10.0 mi WNW 5.8 mph - N/A   Clear
3:55 AM 57.2 °F - 55.4 °F 94% 29.75 in 10.0 mi NW 6.9 mph - N/A   Clear
4:15 AM 57.2 °F - 55.4 °F 94% 29.76 in 10.0 mi NW 6.9 mph - N/A   Clear
4:35 AM 57.2 °F - 55.4 °F 94% 29.76 in 10.0 mi NW 6.9 mph - N/A   Scattered Clouds
4:55 AM 59.0 °F - 57.2 °F 94% 29.77 in 10.0 mi NNW 5.8 mph - N/A   Overcast
5:15 AM 59.0 °F - 57.2 °F 94% 29.78 in 10.0 mi NNW 6.9 mph - N/A   Overcast
5:35 AM 59.0 °F - 57.2 °F 94% 29.79 in 10.0 mi NW 6.9 mph - N/A   Overcast
5:55 AM 59.0 °F - 59.0 °F 100% 29.80 in 7.0 mi NNW 5.8 mph - N/A   Overcast
6:15 AM 60.8 °F - 59.0 °F 94% 29.82 in 7.0 mi NW 4.6 mph - N/A   Overcast
6:35 AM 59.0 °F - 59.0 °F 100% 29.82 in 7.0 mi NW 3.5 mph - N/A   Overcast
6:55 AM 60.8 °F - 59.0 °F 94% 29.83 in 7.0 mi NNW 6.9 mph - N/A   Overcast
7:15 AM 60.8 °F - 59.0 °F 94% 29.84 in 5.0 mi NNW 5.8 mph - N/A   Overcast
7:35 AM 60.8 °F - 60.8 °F 100% 29.86 in 5.0 mi North 9.2 mph - N/A   Overcast
7:55 AM 62.6 °F - 60.8 °F 94% 29.87 in 5.0 mi North 9.2 mph - N/A   Overcast
8:15 AM 62.6 °F - 60.8 °F 94% 29.88 in 5.0 mi North 9.2 mph - N/A   Mostly Cloudy
8:35 AM 64.4 °F - 60.8 °F 88% 29.89 in 7.0 mi North 9.2 mph - N/A   Scattered Clouds
8:55 AM 64.4 °F - 60.8 °F 88% 29.90 in 7.0 mi North 10.4 mph - N/A   Overcast
9:15 AM 64.4 °F - 60.8 °F 88% 29.90 in 7.0 mi North 8.1 mph - N/A   Overcast
9:35 AM 64.4 °F - 60.8 °F 88% 29.91 in 7.0 mi North 9.2 mph - N/A   Overcast
9:55 AM 64.4 °F - 60.8 °F 88% 29.92 in 10.0 mi North 10.4 mph - N/A   Overcast
10:15 AM 64.4 °F - 60.8 °F 88% 29.93 in 10.0 mi North 9.2 mph - N/A   Overcast
10:35 AM 62.6 °F - 57.2 °F 82% 29.93 in 10.0 mi NW 11.5 mph - N/A   Overcast
10:55 AM 62.6 °F - 55.4 °F 77% 29.94 in 10.0 mi NW 11.5 mph - N/A   Overcast
11:15 AM 62.6 °F - 55.4 °F 77% 29.94 in 10.0 mi North 12.7 mph - N/A   Overcast
11:35 AM 62.6 °F - 53.6 °F 72% 29.95 in 10.0 mi NW 11.5 mph - N/A   Overcast
11:55 AM 64.4 °F - 55.4 °F 73% 29.94 in 10.0 mi North 13.8 mph 18.4 mph N/A   Mostly Cloudy
12:15 PM 64.4 °F - 53.6 °F 68% 29.94 in 10.0 mi NNW 10.4 mph 16.1 mph N/A   Overcast
12:35 PM 64.4 °F - 53.6 °F 68% 29.94 in 10.0 mi North 12.7 mph 16.1 mph N/A   Mostly Cloudy
12:55 PM 64.4 °F - 51.8 °F 64% 29.94 in 10.0 mi NNW 12.7 mph 17.3 mph N/A   Overcast
1:15 PM 64.4 °F - 51.8 °F 64% 29.94 in 10.0 mi North 11.5 mph 16.1 mph N/A   Overcast
1:35 PM 64.4 °F - 51.8 °F 64% 29.94 in 10.0 mi North 13.8 mph - N/A   Mostly Cloudy
1:55 PM 64.4 °F - 51.8 °F 64% 29.95 in 10.0 mi NNW 17.3 mph - N/A   Mostly Cloudy
2:15 PM 64.4 °F - 50.0 °F 59% 29.95 in 10.0 mi NNW 12.7 mph 20.7 mph N/A   Mostly Cloudy
2:35 PM 64.4 °F - 48.2 °F 56% 29.96 in 10.0 mi NNW 16.1 mph 20.7 mph N/A   Scattered Clouds
2:55 PM 64.4 °F - 48.2 °F 56% 29.97 in 10.0 mi NNW 16.1 mph 20.7 mph N/A   Scattered Clouds
3:15 PM 62.6 °F - 46.4 °F 55% 29.98 in 10.0 mi NW 19.6 mph 24.2 mph N/A   Scattered Clouds
3:35 PM 60.8 °F - 46.4 °F 59% 30.01 in 10.0 mi NNW 19.6 mph 25.3 mph N/A   Clear
3:55 PM 59.0 °F - 44.6 °F 59% 30.02 in 10.0 mi NNW 19.6 mph 25.3 mph N/A   Mostly Cloudy
4:15 PM 59.0 °F - 44.6 °F 59% 30.04 in 10.0 mi NNW 18.4 mph 26.5 mph N/A   Overcast
4:35 PM 57.2 °F - 44.6 °F 63% 30.05 in 10.0 mi North 19.6 mph - N/A   Overcast
4:55 PM 55.4 °F - 44.6 °F 67% 30.07 in 10.0 mi North 19.6 mph 26.5 mph N/A   Overcast
5:15 PM 53.6 °F - 44.6 °F 72% 30.08 in 10.0 mi North 20.7 mph 26.5 mph N/A   Overcast
5:35 PM 53.6 °F - 44.6 °F 72% 30.10 in 10.0 mi North 17.3 mph 25.3 mph N/A   Overcast
5:55 PM 53.6 °F - 42.8 °F 67% 30.12 in 10.0 mi North 21.9 mph 27.6 mph N/A   Overcast
6:15 PM 53.6 °F - 42.8 °F 67% 30.14 in 10.0 mi North 19.6 mph 26.5 mph N/A   Overcast
6:35 PM 53.6 °F - 41.0 °F 62% 30.16 in 10.0 mi North 20.7 mph 29.9 mph N/A   Overcast
6:55 PM 53.6 °F - 41.0 °F 62% 30.17 in 10.0 mi North 15.0 mph 25.3 mph N/A   Overcast
7:15 PM 53.6 °F - 39.2 °F 58% 30.19 in 10.0 mi North 20.7 mph 26.5 mph N/A   Overcast
7:35 PM 51.8 °F - 37.4 °F 58% 30.20 in 10.0 mi North 17.3 mph 24.2 mph N/A   Overcast
7:55 PM 51.8 °F - 35.6 °F 54% 30.21 in 10.0 mi North 18.4 mph 26.5 mph N/A   Overcast
8:15 PM 51.8 °F - 35.6 °F 54% 30.23 in 10.0 mi North 15.0 mph 21.9 mph N/A   Overcast
8:35 PM 51.8 °F - 33.8 °F 50% 30.25 in 10.0 mi North 11.5 mph 23.0 mph N/A   Overcast
8:55 PM 51.8 °F - 33.8 °F 50% 30.26 in 10.0 mi North 16.1 mph 20.7 mph N/A   Overcast
9:15 PM 51.8 °F - 33.8 °F 50% 30.27 in 10.0 mi North 19.6 mph 27.6 mph N/A   Overcast
9:35 PM 51.8 °F - 33.8 °F 50% 30.29 in 10.0 mi North 17.3 mph 21.9 mph N/A   Overcast
9:55 PM 51.8 °F - 32.0 °F 47% 30.30 in 10.0 mi NNE 13.8 mph - N/A   Overcast
10:15 PM 51.8 °F - 32.0 °F 47% 30.31 in 10.0 mi North 12.7 mph 17.3 mph N/A   Overcast
10:35 PM 50.0 °F - 30.2 °F 47% 30.31 in 10.0 mi North 13.8 mph 18.4 mph N/A   Mostly Cloudy
10:55 PM 50.0 °F - 28.4 °F 43% 30.32 in 10.0 mi North 10.4 mph 20.7 mph N/A   Clear
11:15 PM 48.2 °F - 28.4 °F 46% 30.33 in 10.0 mi NNE 11.5 mph - N/A   Clear
11:35 PM 46.4 °F 40.7 °F 26.6 °F 46% 30.34 in 10.0 mi North 12.7 mph - N/A   Clear
11:55 PM 46.4 °F 40.7 °F 26.6 °F 46% 30.35 in 10.0 mi North 12.7 mph 18.4 mph N/A   Clear